createdAt,value
2022-12-03T00:00:24.741Z,29.25
2022-12-03T00:01:26.987Z,28.60
2022-12-03T00:02:29.754Z,29.45
2022-12-03T00:03:35.972Z,29.05
2022-12-03T00:04:38.553Z,29.42
2022-12-03T00:05:48.221Z,30.05
2022-12-03T00:06:51.664Z,28.42
2022-12-03T00:07:53.995Z,29.10
2022-12-03T00:08:56.400Z,30.27
2022-12-03T00:09:58.655Z,31.02
2022-12-03T00:11:00.983Z,30.90
2022-12-03T00:12:03.342Z,32.10
2022-12-03T00:13:08.192Z,32.28
2022-12-03T00:14:10.492Z,30.52
2022-12-03T00:15:12.927Z,31.52
2022-12-03T00:16:15.503Z,31.13
2022-12-03T00:17:17.778Z,29.70
2022-12-03T00:18:20.392Z,28.55
2022-12-03T00:19:22.758Z,29.55
2022-12-03T00:20:25.461Z,32.47
2022-12-03T00:21:27.878Z,29.35
2022-12-03T00:22:30.170Z,31.08
2022-12-03T00:23:35.892Z,30.80
2022-12-03T00:24:40.853Z,30.70
2022-12-03T00:25:43.063Z,28.95
2022-12-03T00:26:45.666Z,29.52
2022-12-03T00:27:48.484Z,30.67
2022-12-03T00:28:50.752Z,29.67
2022-12-03T00:29:52.981Z,30.33
2022-12-03T00:30:55.697Z,29.60
2022-12-03T00:31:59.399Z,29.67
2022-12-03T00:33:01.648Z,26.42
2022-12-03T00:34:04.008Z,28.52
2022-12-03T00:35:06.818Z,28.67
2022-12-03T00:36:09.345Z,27.13
2022-12-03T00:37:11.760Z,28.85
2022-12-03T00:38:14.329Z,27.50
2022-12-03T00:39:16.749Z,28.17
2022-12-03T00:40:22.077Z,30.30
2022-12-03T00:41:25.269Z,30.58
2022-12-03T00:42:27.740Z,28.38
2022-12-03T00:43:30.002Z,27.58
2022-12-03T00:44:32.288Z,28.63
2022-12-03T00:45:34.518Z,29.58
2022-12-03T00:46:36.918Z,27.77
2022-12-03T00:47:39.234Z,29.45
2022-12-03T00:48:41.505Z,29.42
2022-12-03T00:49:44.187Z,27.40
2022-12-03T00:50:46.483Z,28.00
2022-12-03T00:51:49.118Z,28.20
2022-12-03T00:52:51.429Z,29.05
2022-12-03T00:53:53.777Z,29.48
2022-12-03T00:54:56.168Z,28.13
2022-12-03T00:55:58.633Z,27.15
2022-12-03T00:57:00.894Z,29.63
2022-12-03T00:58:03.389Z,29.55
2022-12-03T00:59:06.974Z,27.88
2022-12-03T01:00:10.202Z,28.85
2022-12-03T01:01:12.682Z,30.83
2022-12-03T01:02:15.625Z,27.88
2022-12-03T01:03:17.937Z,29.45
2022-12-03T01:04:20.507Z,31.00
2022-12-03T01:05:22.907Z,30.20
2022-12-03T01:06:25.234Z,27.88
2022-12-03T01:07:28.022Z,29.58
2022-12-03T01:08:30.603Z,28.95
2022-12-03T01:09:32.902Z,27.30
2022-12-03T01:10:35.458Z,29.13
2022-12-03T01:11:37.745Z,29.73
2022-12-03T01:12:40.190Z,28.77
2022-12-03T01:13:42.523Z,30.20
2022-12-03T01:14:46.032Z,27.60
2022-12-03T01:15:48.371Z,28.05
2022-12-03T01:16:50.869Z,27.65
2022-12-03T01:17:54.476Z,27.00
2022-12-03T01:18:56.907Z,27.95
2022-12-03T01:19:59.538Z,27.55
2022-12-03T01:21:01.913Z,26.25
2022-12-03T01:22:04.218Z,28.08
2022-12-03T01:23:06.537Z,27.02
2022-12-03T01:24:08.888Z,26.88
2022-12-03T01:25:11.515Z,25.73
2022-12-03T01:26:13.737Z,26.10
2022-12-03T01:27:16.156Z,26.42
2022-12-03T01:28:18.433Z,26.67
2022-12-03T01:29:20.691Z,25.77
2022-12-03T01:30:22.896Z,25.33
2022-12-03T01:31:43.605Z,26.58
2022-12-03T01:32:46.020Z,24.33
2022-12-03T01:33:48.595Z,26.02
2022-12-03T01:34:54.278Z,23.80
2022-12-03T01:35:57.379Z,26.02
2022-12-03T01:36:59.629Z,24.25
2022-12-03T01:38:01.885Z,23.98
2022-12-03T01:39:05.331Z,25.35
2022-12-03T01:40:09.136Z,25.15
2022-12-03T01:41:12.122Z,25.55
2022-12-03T01:42:23.785Z,24.15
2022-12-03T01:43:26.248Z,25.05
2022-12-03T01:44:31.378Z,24.83
2022-12-03T01:45:33.953Z,25.38
2022-12-03T01:46:41.693Z,23.40
2022-12-03T01:47:44.101Z,23.17
2022-12-03T01:48:48.598Z,24.05
2022-12-03T01:50:57.612Z,21.55
2022-12-03T01:52:01.289Z,21.10
2022-12-03T01:53:04.779Z,23.00
2022-12-03T01:54:12.502Z,23.33
2022-12-03T01:55:18.203Z,23.70
2022-12-03T01:56:20.554Z,23.48
2022-12-03T01:57:36.102Z,23.58
2022-12-03T01:58:39.488Z,22.40
2022-12-03T01:59:44.090Z,23.65
2022-12-03T02:00:46.342Z,22.98
2022-12-03T02:01:49.054Z,23.25
2022-12-03T02:02:58.015Z,25.48
2022-12-03T02:04:00.416Z,24.25
2022-12-03T02:05:07.524Z,23.48
2022-12-03T02:06:19.709Z,23.73
2022-12-03T02:07:27.185Z,24.38
2022-12-03T02:08:34.914Z,23.67
2022-12-03T02:09:37.151Z,24.52
2022-12-03T02:10:39.347Z,23.45
2022-12-03T02:11:47.561Z,25.88
2022-12-03T02:12:56.199Z,23.98
2022-12-03T02:14:05.590Z,23.23
2022-12-03T02:15:09.502Z,24.00
2022-12-03T02:16:11.800Z,25.23
2022-12-03T02:17:14.495Z,25.92
2022-12-03T02:18:16.925Z,25.63
2022-12-03T02:19:27.725Z,26.27
2022-12-03T02:20:33.646Z,25.70
2022-12-03T02:21:48.770Z,25.08
2022-12-03T02:23:03.069Z,25.25
2022-12-03T02:24:14.643Z,25.33
2022-12-03T02:25:21.263Z,26.25
2022-12-03T02:26:23.729Z,24.88
2022-12-03T02:27:28.737Z,28.95
2022-12-03T02:28:31.368Z,24.75
2022-12-03T02:29:34.273Z,27.27
2022-12-03T02:30:37.218Z,26.05
2022-12-03T02:31:39.546Z,27.23
2022-12-03T02:32:41.982Z,27.15
2022-12-03T02:33:44.619Z,25.65
2022-12-03T02:34:47.161Z,25.25
2022-12-03T02:35:49.772Z,24.95
2022-12-03T02:36:52.352Z,25.73
2022-12-03T02:37:59.507Z,27.10
2022-12-03T02:39:02.567Z,27.05
2022-12-03T02:40:11.359Z,26.35
2022-12-03T02:41:37.423Z,24.45
2022-12-03T02:42:41.395Z,26.08
2022-12-03T02:43:43.587Z,26.05
2022-12-03T02:44:45.818Z,27.42
2022-12-03T02:45:52.144Z,26.30
2022-12-03T02:46:54.527Z,26.70
2022-12-03T02:48:13.735Z,26.27
2022-12-03T02:49:19.008Z,25.13
2022-12-03T02:50:26.833Z,26.00
2022-12-03T02:51:30.400Z,26.05
2022-12-03T02:52:32.793Z,25.63
2022-12-03T02:53:44.681Z,26.67
2022-12-03T02:54:47.628Z,25.75
2022-12-03T02:55:51.635Z,24.85
2022-12-03T02:56:56.117Z,25.33
2022-12-03T02:57:58.488Z,24.65
2022-12-03T02:59:05.326Z,27.20
2022-12-03T03:00:09.906Z,23.75
2022-12-03T03:01:12.615Z,25.95
2022-12-03T03:02:15.237Z,25.40
2022-12-03T03:03:21.387Z,24.20
2022-12-03T03:04:25.163Z,25.75
2022-12-03T03:05:27.651Z,27.05
2022-12-03T03:06:30.187Z,25.80
2022-12-03T03:07:33.873Z,25.92
2022-12-03T03:08:38.256Z,25.02
2022-12-03T03:09:41.022Z,26.75
2022-12-03T03:10:45.140Z,28.60
2022-12-03T03:11:48.659Z,29.25
2022-12-03T03:12:54.102Z,28.10
2022-12-03T03:13:57.379Z,28.98
2022-12-03T03:15:00.002Z,29.23
2022-12-03T03:16:03.567Z,28.02
2022-12-03T03:17:06.192Z,28.92
2022-12-03T03:18:09.839Z,30.75
2022-12-03T03:19:12.428Z,27.95
2022-12-03T03:20:15.577Z,27.50
2022-12-03T03:21:17.948Z,25.90
2022-12-03T03:22:20.287Z,25.90
2022-12-03T03:23:24.317Z,24.90
2022-12-03T03:24:26.856Z,28.40
2022-12-03T03:25:29.078Z,25.58
2022-12-03T03:26:31.328Z,25.52
2022-12-03T03:27:34.368Z,23.73
2022-12-03T03:28:39.961Z,23.05
2022-12-03T03:29:42.558Z,21.98
2022-12-03T03:30:45.771Z,21.52
2022-12-03T03:31:48.600Z,23.65
2022-12-03T03:32:50.902Z,22.38
2022-12-03T03:33:53.347Z,23.17
2022-12-03T03:34:56.749Z,24.70
2022-12-03T03:36:00.643Z,23.05
2022-12-03T03:37:03.026Z,22.77
2022-12-03T03:38:07.094Z,23.45
2022-12-03T03:39:09.835Z,22.25
2022-12-03T03:40:12.337Z,23.40
2022-12-03T03:41:16.388Z,22.73
2022-12-03T03:42:18.844Z,23.15
2022-12-03T03:43:22.997Z,23.25
2022-12-03T03:44:25.364Z,22.13
2022-12-03T03:45:29.651Z,22.25
2022-12-03T03:46:33.636Z,20.73
2022-12-03T03:47:36.409Z,22.02
2022-12-03T03:48:40.001Z,22.45
2022-12-03T03:49:42.909Z,21.48
2022-12-03T03:50:46.045Z,22.38
2022-12-03T03:51:48.450Z,23.55
2022-12-03T03:52:50.792Z,23.48
2022-12-03T03:53:53.603Z,20.88
2022-12-03T03:54:56.139Z,22.60
2022-12-03T03:55:58.546Z,21.83
2022-12-03T03:57:00.802Z,30.52
2022-12-03T03:58:03.170Z,26.88
2022-12-03T03:59:05.833Z,28.88
2022-12-03T04:00:09.117Z,26.17
2022-12-03T04:01:13.471Z,24.02
2022-12-03T04:02:21.682Z,27.92
2022-12-03T04:03:23.931Z,25.02
2022-12-03T04:04:38.166Z,28.25
2022-12-03T04:05:40.708Z,27.27
2022-12-03T04:06:42.940Z,29.48
2022-12-03T04:07:48.175Z,28.05
2022-12-03T04:08:51.513Z,26.88
2022-12-03T04:09:54.759Z,25.25
2022-12-03T04:11:15.611Z,23.92
2022-12-03T04:12:36.486Z,23.80
2022-12-03T04:13:38.952Z,23.55
2022-12-03T04:14:41.203Z,22.23
2022-12-03T04:15:43.551Z,21.98
2022-12-03T04:16:45.866Z,20.50
2022-12-03T04:18:11.404Z,23.58
2022-12-03T04:19:16.630Z,20.58
2022-12-03T04:20:18.861Z,20.88
2022-12-03T04:21:41.890Z,21.48
2022-12-03T04:22:44.197Z,21.40
2022-12-03T04:23:46.712Z,21.90
2022-12-03T04:24:49.050Z,21.00
2022-12-03T04:26:09.990Z,20.60
2022-12-03T04:27:31.219Z,21.02
2022-12-03T04:28:52.032Z,20.38
2022-12-03T04:29:54.263Z,19.77
2022-12-03T04:30:57.762Z,20.27
2022-12-03T04:32:19.410Z,22.02
2022-12-03T04:33:40.163Z,20.70
2022-12-03T04:35:01.033Z,21.17
2022-12-03T04:36:03.932Z,19.77
2022-12-03T04:37:06.243Z,23.48
2022-12-03T04:38:09.485Z,23.08
2022-12-03T04:39:11.772Z,23.58
2022-12-03T04:40:32.741Z,21.42
2022-12-03T04:41:35.401Z,22.17
2022-12-03T04:42:37.809Z,22.30
2022-12-03T04:43:59.968Z,22.98
2022-12-03T04:45:02.425Z,21.70
2022-12-03T04:46:05.175Z,21.35
2022-12-03T04:47:21.947Z,22.65
2022-12-03T04:48:25.362Z,20.73
2022-12-03T04:49:27.687Z,22.98
2022-12-03T04:50:30.135Z,21.90
2022-12-03T04:51:32.408Z,21.75
2022-12-03T04:52:34.706Z,21.85
2022-12-03T04:53:39.636Z,22.77
2022-12-03T04:54:45.202Z,21.35
2022-12-03T04:55:47.418Z,22.45
2022-12-03T04:56:49.734Z,21.38
2022-12-03T04:57:53.001Z,21.50
2022-12-03T04:58:55.302Z,22.15
2022-12-03T04:59:57.635Z,22.55
2022-12-03T05:00:59.922Z,22.40
2022-12-03T05:02:03.287Z,22.45
2022-12-03T05:03:05.854Z,21.15
2022-12-03T05:04:08.443Z,21.00
2022-12-03T05:05:11.254Z,22.83
2022-12-03T05:06:13.826Z,21.33
2022-12-03T05:07:16.096Z,21.83
2022-12-03T05:08:18.346Z,21.10
2022-12-03T05:09:20.991Z,22.88
2022-12-03T05:10:23.332Z,21.90
2022-12-03T05:11:28.368Z,21.63
2022-12-03T05:12:30.587Z,21.73
2022-12-03T05:13:32.844Z,21.48
2022-12-03T05:14:35.946Z,21.73
2022-12-03T05:15:38.327Z,22.15
2022-12-03T05:16:40.651Z,21.23
2022-12-03T05:17:42.970Z,21.48
2022-12-03T05:18:45.315Z,21.27
2022-12-03T05:20:06.197Z,20.40
2022-12-03T05:21:08.471Z,22.02
2022-12-03T05:22:10.709Z,22.05
2022-12-03T05:23:14.140Z,22.50
2022-12-03T05:24:16.496Z,21.13
2022-12-03T05:25:18.784Z,22.13
2022-12-03T05:26:21.105Z,20.27
2022-12-03T05:27:24.396Z,21.75
2022-12-03T05:28:29.316Z,22.20
2022-12-03T05:29:31.786Z,19.83
2022-12-03T05:30:34.778Z,20.95
2022-12-03T05:31:37.046Z,22.80
2022-12-03T05:32:39.645Z,20.45
2022-12-03T05:33:44.577Z,20.88
2022-12-03T05:34:47.026Z,21.52
2022-12-03T05:35:49.414Z,21.50
2022-12-03T05:36:51.779Z,19.85
2022-12-03T05:37:54.151Z,20.83
2022-12-03T05:38:56.596Z,19.83
2022-12-03T05:39:58.799Z,20.63
2022-12-03T05:41:01.004Z,20.00
2022-12-03T05:42:22.742Z,19.90
2022-12-03T05:43:25.287Z,19.95
2022-12-03T05:44:27.525Z,19.77
2022-12-03T05:45:33.226Z,19.60
2022-12-03T05:46:36.565Z,20.50
2022-12-03T05:47:38.976Z,19.50
2022-12-03T05:48:41.307Z,19.10
2022-12-03T05:49:43.677Z,18.33
2022-12-03T05:50:47.046Z,21.38
2022-12-03T05:51:52.526Z,19.17
2022-12-03T05:53:00.129Z,20.08
2022-12-03T05:54:02.724Z,20.63
2022-12-03T05:55:05.854Z,19.85
2022-12-03T05:56:08.539Z,20.35
2022-12-03T05:57:10.873Z,18.15
2022-12-03T05:58:13.269Z,21.30
2022-12-03T05:59:15.548Z,18.38
2022-12-03T06:00:23.827Z,18.65
2022-12-03T06:01:26.125Z,18.83
2022-12-03T06:02:28.463Z,20.38
2022-12-03T06:03:31.040Z,19.38
2022-12-03T06:04:33.349Z,19.00
2022-12-03T06:05:35.596Z,18.77
2022-12-03T06:06:38.542Z,19.00
2022-12-03T06:07:41.209Z,19.50
2022-12-03T06:08:43.533Z,19.90
2022-12-03T06:09:45.723Z,17.60
2022-12-03T06:10:48.139Z,20.75
2022-12-03T06:11:54.180Z,20.35
2022-12-03T06:12:56.526Z,21.10
2022-12-03T06:14:01.366Z,20.92
2022-12-03T06:15:04.015Z,19.58
2022-12-03T06:16:06.380Z,20.17
2022-12-03T06:17:08.733Z,23.35
2022-12-03T06:18:11.781Z,21.27
2022-12-03T06:19:14.278Z,21.30
2022-12-03T06:20:19.531Z,21.63
2022-12-03T06:21:21.694Z,20.17
2022-12-03T06:22:23.985Z,19.10
2022-12-03T06:23:26.403Z,20.55
2022-12-03T06:24:31.243Z,21.25
2022-12-03T06:25:36.609Z,20.25
2022-12-03T06:26:38.793Z,19.95
2022-12-03T06:27:41.233Z,19.83
2022-12-03T06:28:47.829Z,19.90
2022-12-03T06:29:50.052Z,19.95
2022-12-03T06:30:52.349Z,19.90
2022-12-03T06:31:54.716Z,20.60
2022-12-03T06:32:57.004Z,18.77
2022-12-03T06:33:59.278Z,19.02
2022-12-03T06:35:04.187Z,18.63
2022-12-03T06:36:07.060Z,19.00
2022-12-03T06:37:09.406Z,19.73
2022-12-03T06:38:11.644Z,18.02
2022-12-03T06:39:13.936Z,20.95
2022-12-03T06:40:17.033Z,25.73
2022-12-03T06:41:19.869Z,22.02
2022-12-03T06:42:27.371Z,27.13
2022-12-03T06:43:31.179Z,29.20
2022-12-03T06:44:33.528Z,30.63
2022-12-03T06:45:35.878Z,28.85
2022-12-03T06:46:38.261Z,28.25
2022-12-03T06:47:40.663Z,29.38
2022-12-03T06:48:42.856Z,29.48
2022-12-03T06:49:45.273Z,31.63
2022-12-03T06:50:47.700Z,29.70
2022-12-03T06:51:49.993Z,28.85
2022-12-03T06:52:52.350Z,32.50
2022-12-03T06:53:54.661Z,31.58
2022-12-03T06:54:57.154Z,31.27
2022-12-03T06:56:00.038Z,33.85
2022-12-03T06:57:02.912Z,33.00
2022-12-03T06:58:05.166Z,34.47
2022-12-03T06:59:07.720Z,34.08
2022-12-03T07:00:10.628Z,33.35
2022-12-03T07:01:13.044Z,31.65
2022-12-03T07:02:15.490Z,33.22
2022-12-03T07:03:17.934Z,32.15
2022-12-03T07:04:20.498Z,31.17
2022-12-03T07:05:22.868Z,32.63
2022-12-03T07:06:25.518Z,32.17
2022-12-03T07:07:27.952Z,33.17
2022-12-03T07:08:30.396Z,31.65
2022-12-03T07:09:32.715Z,32.80
2022-12-03T07:10:34.971Z,32.15
2022-12-03T07:11:40.628Z,34.25
2022-12-03T07:12:43.252Z,31.30
2022-12-03T07:13:45.564Z,31.20
2022-12-03T07:14:47.709Z,29.08
2022-12-03T07:15:50.066Z,24.50
2022-12-03T07:16:52.454Z,25.27
2022-12-03T07:17:54.626Z,27.30
2022-12-03T07:18:56.873Z,25.38
2022-12-03T07:19:59.420Z,26.92
2022-12-03T07:21:01.697Z,26.75
2022-12-03T07:22:04.310Z,25.58
2022-12-03T07:23:06.925Z,26.60
2022-12-03T07:24:09.364Z,24.25
2022-12-03T07:25:16.774Z,25.58
2022-12-03T07:26:21.989Z,24.90
2022-12-03T07:27:24.136Z,25.35
2022-12-03T07:28:26.534Z,24.73
2022-12-03T07:29:29.273Z,29.25
2022-12-03T07:30:31.753Z,29.23
2022-12-03T07:31:34.739Z,28.55
2022-12-03T07:32:37.368Z,31.83
2022-12-03T07:33:39.606Z,32.17
2022-12-03T07:34:41.981Z,30.05
2022-12-03T07:35:44.432Z,29.63
2022-12-03T07:36:47.436Z,28.02
2022-12-03T07:37:50.397Z,28.83
2022-12-03T07:38:52.625Z,28.90
2022-12-03T07:39:55.008Z,28.80
2022-12-03T07:40:59.596Z,31.95
2022-12-03T07:42:02.622Z,30.55
2022-12-03T07:43:05.114Z,33.97
2022-12-03T07:44:12.539Z,32.13
2022-12-03T07:45:16.717Z,30.38
2022-12-03T07:46:19.010Z,30.80
2022-12-03T07:47:24.260Z,30.98
2022-12-03T07:48:29.242Z,27.17
2022-12-03T07:49:31.683Z,26.15
2022-12-03T07:50:34.295Z,22.58
2022-12-03T07:51:37.221Z,20.83
2022-12-03T07:52:39.499Z,21.90
2022-12-03T07:53:42.224Z,22.25
2022-12-03T07:54:44.575Z,24.17
2022-12-03T07:55:46.860Z,23.67
2022-12-03T07:56:49.149Z,24.60
2022-12-03T07:57:51.595Z,24.38
2022-12-03T07:58:54.183Z,30.40
2022-12-03T07:59:56.641Z,30.33
2022-12-03T08:00:59.021Z,35.67
2022-12-03T08:02:02.488Z,37.03
2022-12-03T08:03:04.870Z,29.45
2022-12-03T08:04:07.181Z,24.52
2022-12-03T08:05:09.443Z,27.38
2022-12-03T08:06:11.736Z,27.85
2022-12-03T08:07:14.054Z,23.90
2022-12-03T08:08:16.367Z,31.33
2022-12-03T08:09:18.830Z,32.65
2022-12-03T08:10:21.061Z,30.60
2022-12-03T08:11:26.692Z,25.02
2022-12-03T08:12:50.734Z,23.83
2022-12-03T08:13:53.021Z,28.75
2022-12-03T08:14:56.789Z,23.00
2022-12-03T08:16:02.170Z,23.48
2022-12-03T08:17:12.003Z,23.88
2022-12-03T08:18:17.159Z,22.77
2022-12-03T08:19:19.489Z,23.65
2022-12-03T08:20:24.272Z,21.67
2022-12-03T08:21:34.643Z,21.15
2022-12-03T08:22:36.816Z,19.88
2022-12-03T08:23:39.502Z,21.25
2022-12-03T08:24:42.647Z,21.70
2022-12-03T08:25:45.847Z,21.98
2022-12-03T08:26:50.055Z,21.73
2022-12-03T08:27:55.742Z,20.73
2022-12-03T08:28:58.379Z,22.23
2022-12-03T08:30:04.699Z,24.17
2022-12-03T08:31:12.615Z,22.38
2022-12-03T08:32:15.090Z,18.67
2022-12-03T08:33:27.198Z,21.90
2022-12-03T08:34:35.637Z,21.45
2022-12-03T08:35:37.925Z,19.60
2022-12-03T08:36:40.204Z,18.75
2022-12-03T08:37:42.485Z,20.40
2022-12-03T08:38:55.460Z,22.90
2022-12-03T08:39:57.768Z,21.13
2022-12-03T08:41:00.003Z,19.85
2022-12-03T08:42:23.362Z,19.40
2022-12-03T08:43:35.834Z,18.92
2022-12-03T08:44:41.110Z,18.13
2022-12-03T08:45:43.647Z,18.70
2022-12-03T08:46:54.367Z,18.30
2022-12-03T08:48:04.000Z,20.60
2022-12-03T08:49:06.597Z,21.15
2022-12-03T08:50:29.412Z,21.25
2022-12-03T08:51:31.761Z,20.88
2022-12-03T08:52:35.230Z,18.88
2022-12-03T08:53:42.771Z,20.33
2022-12-03T08:54:56.416Z,18.45
2022-12-03T08:56:05.348Z,19.88
2022-12-03T08:57:27.817Z,19.52
2022-12-03T08:58:33.525Z,18.65
2022-12-03T08:59:40.258Z,19.58
2022-12-03T09:00:45.179Z,21.60
2022-12-03T09:01:49.136Z,23.23
2022-12-03T09:02:59.381Z,22.85
2022-12-03T09:04:24.145Z,25.08
2022-12-03T09:05:30.200Z,25.20
2022-12-03T09:06:32.640Z,26.38
2022-12-03T09:07:35.318Z,25.08
2022-12-03T09:08:37.674Z,26.70
2022-12-03T09:09:40.807Z,22.65
2022-12-03T09:10:43.197Z,24.55
2022-12-03T09:11:46.840Z,22.88
2022-12-03T09:12:49.232Z,23.23
2022-12-03T09:13:51.807Z,23.58
2022-12-03T09:14:54.334Z,22.02
2022-12-03T09:15:56.732Z,20.35
2022-12-03T09:16:59.121Z,19.45
2022-12-03T09:18:01.490Z,20.15
2022-12-03T09:19:04.551Z,21.98
2022-12-03T09:20:07.422Z,21.10
2022-12-03T09:21:09.947Z,20.67
2022-12-03T09:22:12.359Z,19.30
2022-12-03T09:23:17.446Z,22.10
2022-12-03T09:24:20.324Z,21.48
2022-12-03T09:25:22.586Z,21.80
2022-12-03T09:26:27.265Z,22.52
2022-12-03T09:27:29.476Z,20.55
2022-12-03T09:28:31.927Z,18.75
2022-12-03T09:29:34.712Z,23.05
2022-12-03T09:30:37.552Z,23.00
2022-12-03T09:31:40.141Z,22.48
2022-12-03T09:32:42.545Z,20.67
2022-12-03T09:33:44.890Z,21.50
2022-12-03T09:34:47.303Z,21.65
2022-12-03T09:35:49.517Z,19.95
2022-12-03T09:36:51.939Z,21.45
2022-12-03T09:37:54.386Z,21.98
2022-12-03T09:38:57.019Z,20.67
2022-12-03T09:39:59.427Z,28.77
2022-12-03T09:41:01.741Z,26.88
2022-12-03T09:42:04.171Z,26.50
2022-12-03T09:43:06.665Z,43.13
2022-12-03T09:44:15.879Z,41.78
2022-12-03T09:45:20.393Z,27.55
2022-12-03T09:46:23.241Z,24.58
2022-12-03T09:47:25.717Z,21.63
2022-12-03T09:48:28.333Z,20.15
2022-12-03T09:49:33.123Z,25.27
2022-12-03T09:50:40.657Z,26.08
2022-12-03T09:51:44.122Z,26.08
2022-12-03T09:53:52.361Z,29.08
2022-12-03T09:54:55.090Z,26.98
2022-12-03T09:56:03.545Z,26.60
2022-12-03T09:57:07.291Z,22.52
2022-12-03T09:58:14.651Z,22.60
2022-12-03T09:59:17.835Z,22.73
2022-12-03T10:00:26.156Z,21.75
2022-12-03T10:01:30.585Z,21.40
2022-12-03T10:02:34.449Z,20.00
2022-12-03T10:03:47.926Z,21.25
2022-12-03T10:04:50.303Z,25.90
2022-12-03T10:05:54.166Z,24.25
2022-12-03T10:06:58.579Z,28.45
2022-12-03T10:08:08.575Z,38.67
2022-12-03T10:09:14.500Z,28.42
2022-12-03T10:10:21.037Z,29.67
2022-12-03T10:11:25.628Z,24.65
2022-12-03T10:12:28.086Z,22.10
2022-12-03T10:13:32.337Z,23.40
2022-12-03T10:14:34.877Z,24.08
2022-12-03T10:15:37.694Z,27.35
2022-12-03T10:16:41.198Z,26.00
2022-12-03T10:17:44.460Z,27.33
2022-12-03T10:18:51.442Z,27.02
2022-12-03T10:19:54.130Z,28.35
2022-12-03T10:20:57.522Z,25.77
2022-12-03T10:21:59.870Z,23.88
2022-12-03T10:23:02.326Z,22.38
2022-12-03T10:24:25.653Z,20.83
2022-12-03T10:25:27.933Z,22.40
2022-12-03T10:26:43.404Z,21.10
2022-12-03T10:28:04.026Z,22.60
2022-12-03T10:29:13.465Z,22.15
2022-12-03T10:30:19.801Z,23.42
2022-12-03T10:31:35.952Z,22.10
2022-12-03T10:32:49.275Z,22.02
2022-12-03T10:33:58.331Z,21.05
2022-12-03T10:35:22.290Z,20.52
2022-12-03T10:36:26.724Z,20.02
2022-12-03T10:37:29.014Z,22.27
2022-12-03T10:38:31.253Z,21.73
2022-12-03T10:39:33.533Z,20.30
2022-12-03T10:40:38.884Z,20.25
2022-12-03T10:41:42.587Z,19.45
2022-12-03T10:42:44.878Z,20.75
2022-12-03T10:43:47.243Z,22.08
2022-12-03T10:44:53.824Z,23.60
2022-12-03T10:46:03.571Z,23.30
2022-12-03T10:48:20.171Z,21.75
2022-12-03T10:49:22.732Z,20.55
2022-12-03T10:50:25.060Z,25.00
2022-12-03T10:51:27.359Z,22.40
2022-12-03T10:52:33.328Z,22.40
2022-12-03T10:53:37.324Z,22.58
2022-12-03T10:55:44.055Z,21.80
2022-12-03T10:56:50.754Z,22.60
2022-12-03T10:57:53.886Z,24.08
2022-12-03T10:58:56.355Z,22.15
2022-12-03T10:59:58.626Z,20.63
2022-12-03T11:01:03.753Z,21.17
2022-12-03T11:02:34.888Z,20.58
2022-12-03T11:03:37.339Z,19.80
2022-12-03T11:04:40.917Z,21.52
2022-12-03T11:05:45.768Z,21.13
2022-12-03T11:06:48.655Z,20.45
2022-12-03T11:07:51.053Z,20.50
2022-12-03T11:08:57.874Z,18.95
2022-12-03T11:10:02.882Z,18.48
2022-12-03T11:11:08.240Z,17.52
2022-12-03T11:12:26.536Z,18.52
2022-12-03T11:13:34.752Z,17.17
2022-12-03T11:14:54.310Z,17.58
2022-12-03T11:15:57.618Z,18.35
2022-12-03T11:17:00.048Z,18.48
2022-12-03T11:18:03.756Z,17.60
2022-12-03T11:19:19.855Z,17.38
2022-12-03T11:20:24.975Z,16.77
2022-12-03T11:21:27.597Z,17.35
2022-12-03T11:22:41.501Z,16.77
2022-12-03T11:23:46.864Z,17.10
2022-12-03T11:25:27.471Z,17.52
2022-12-03T11:26:29.725Z,16.33
2022-12-03T11:27:32.207Z,17.67
2022-12-03T11:28:36.246Z,16.13
2022-12-03T11:29:47.870Z,16.80
2022-12-03T11:31:01.478Z,17.75
2022-12-03T11:32:03.797Z,17.45
2022-12-03T11:33:20.160Z,16.65
2022-12-03T11:35:36.247Z,22.48
2022-12-03T11:37:10.376Z,23.02
2022-12-03T11:38:37.439Z,18.05
2022-12-03T11:39:45.817Z,17.13
2022-12-03T11:41:18.169Z,18.40
2022-12-03T11:42:26.683Z,19.35
2022-12-03T11:43:53.902Z,18.05
2022-12-03T11:45:11.002Z,20.85
2022-12-03T11:46:15.745Z,19.90
2022-12-03T11:47:18.172Z,18.98
2022-12-03T11:48:20.641Z,20.70
2022-12-03T11:49:33.288Z,18.92
2022-12-03T11:50:40.331Z,19.20
2022-12-03T11:51:44.345Z,20.50
2022-12-03T11:52:52.610Z,22.80
2022-12-03T11:53:58.129Z,21.63
2022-12-03T11:55:14.903Z,22.95
2022-12-03T11:56:20.317Z,21.17
2022-12-03T11:57:27.669Z,21.10
2022-12-03T11:58:30.976Z,19.52
2022-12-03T11:59:33.208Z,19.95
2022-12-03T12:00:35.506Z,18.92
2022-12-03T12:01:41.291Z,19.65
2022-12-03T12:02:44.413Z,19.63
2022-12-03T12:03:49.627Z,18.65
2022-12-03T12:04:52.103Z,16.77
2022-12-03T12:06:08.182Z,18.98
2022-12-03T12:07:10.713Z,20.75
2022-12-03T12:08:19.712Z,20.70
2022-12-03T12:09:50.987Z,18.63
2022-12-03T12:10:53.347Z,16.20
2022-12-03T12:11:55.595Z,17.13
2022-12-03T12:12:57.845Z,17.88
2022-12-03T12:14:01.941Z,16.83
2022-12-03T12:15:38.001Z,16.85
2022-12-03T12:16:46.091Z,17.20
2022-12-03T12:17:48.493Z,18.58
2022-12-03T12:18:55.011Z,19.80
2022-12-03T12:20:25.787Z,15.82
2022-12-03T12:21:48.268Z,18.52
2022-12-03T12:22:52.044Z,15.65
2022-12-03T12:23:54.456Z,15.40
2022-12-03T12:25:25.694Z,15.55
2022-12-03T12:26:28.083Z,16.88
2022-12-03T12:27:49.563Z,18.38
2022-12-03T12:28:51.906Z,16.73
2022-12-03T12:29:57.412Z,14.00
2022-12-03T12:31:00.630Z,15.90
2022-12-03T12:32:31.317Z,16.10
2022-12-03T12:33:35.601Z,15.43
2022-12-03T12:34:42.509Z,15.13
2022-12-03T12:35:44.760Z,14.77
2022-12-03T12:36:49.989Z,15.70
2022-12-03T12:38:07.617Z,16.50
2022-12-03T12:39:15.682Z,17.88
2022-12-03T12:40:18.925Z,19.67
2022-12-03T12:41:21.284Z,18.30
2022-12-03T12:42:37.182Z,47.72
2022-12-03T12:43:40.188Z,25.25
2022-12-03T12:44:42.534Z,21.92
2022-12-03T12:45:45.025Z,19.90
2022-12-03T12:46:48.596Z,17.33
2022-12-03T12:48:59.428Z,21.58
2022-12-03T12:50:08.659Z,17.23
2022-12-03T12:51:19.871Z,17.13
2022-12-03T12:52:31.045Z,17.73
2022-12-03T12:53:36.659Z,18.63
2022-12-03T12:54:39.527Z,19.23
2022-12-03T12:55:41.952Z,20.45
2022-12-03T12:56:46.362Z,21.02
2022-12-03T12:57:49.070Z,21.02
2022-12-03T12:58:55.161Z,19.13
2022-12-03T12:59:57.681Z,18.30
2022-12-03T13:01:05.825Z,16.85
2022-12-03T13:02:41.208Z,19.42
2022-12-03T13:03:44.022Z,20.52
2022-12-03T13:04:46.231Z,19.13
2022-12-03T13:05:50.093Z,19.35
2022-12-03T13:07:56.226Z,20.00
2022-12-03T13:09:01.335Z,19.50
2022-12-03T13:10:20.609Z,20.75
2022-12-03T13:11:32.275Z,21.65
2022-12-03T13:12:34.513Z,19.88
2022-12-03T13:13:44.349Z,19.85
2022-12-03T13:14:47.355Z,17.55
2022-12-03T13:16:19.318Z,19.38
2022-12-03T13:17:24.713Z,21.73
2022-12-03T13:18:32.546Z,17.05
2022-12-03T13:19:46.099Z,18.27
2022-12-03T13:20:50.860Z,21.23
2022-12-03T13:21:55.742Z,19.20
2022-12-03T13:22:58.114Z,19.02
2022-12-03T13:24:01.038Z,18.23
2022-12-03T13:25:57.797Z,23.75
2022-12-03T13:26:52.918Z,22.10
2022-12-03T13:27:55.274Z,24.52
2022-12-03T13:28:58.012Z,22.88
2022-12-03T13:30:13.767Z,20.98
2022-12-03T13:31:33.596Z,21.75
2022-12-03T13:32:41.056Z,24.30
2022-12-03T13:33:43.266Z,22.50
2022-12-03T13:34:46.772Z,32.25
2022-12-03T13:35:49.023Z,33.90
2022-12-03T13:36:57.549Z,21.90
2022-12-03T13:38:00.621Z,21.73
2022-12-03T13:39:13.389Z,21.77
2022-12-03T13:40:35.102Z,31.38
2022-12-03T13:41:56.480Z,28.63
2022-12-03T13:42:59.592Z,25.85
2022-12-03T13:44:02.251Z,24.50
2022-12-03T13:45:16.748Z,24.15
2022-12-03T13:46:19.050Z,22.08
2022-12-03T13:47:22.847Z,19.52
2022-12-03T13:48:31.464Z,19.08
2022-12-03T13:49:35.123Z,19.67
2022-12-03T13:50:41.175Z,18.45
2022-12-03T13:51:44.436Z,19.17
2022-12-03T13:52:47.383Z,20.75
2022-12-03T13:53:49.716Z,22.60
2022-12-03T13:54:55.272Z,32.75
2022-12-03T13:56:03.221Z,29.83
2022-12-03T13:57:06.674Z,29.55
2022-12-03T13:58:09.108Z,29.08
2022-12-03T13:59:11.670Z,29.15
2022-12-03T14:00:14.681Z,28.52
2022-12-03T14:01:17.579Z,25.98
2022-12-03T14:02:20.104Z,23.80
2022-12-03T14:03:24.776Z,24.80
2022-12-03T14:04:27.044Z,23.55
2022-12-03T14:05:29.516Z,25.35
2022-12-03T14:06:33.779Z,25.52
2022-12-03T14:07:36.417Z,25.90
2022-12-03T14:08:38.840Z,24.52